sensor_id;sensor_type;location;lat;lon;timestamp;P1;durP1;ratioP1;P2;durP2;ratioP2
27357;SDS011;14831;50.474;7.616;2023-08-06T00:00:57;5.1;;;3.3;;
27357;SDS011;14831;50.474;7.616;2023-08-06T00:05:57;4.6;;;3.4;;
27357;SDS011;14831;50.474;7.616;2023-08-06T00:10:57;4.6;;;3.4;;
27357;SDS011;14831;50.474;7.616;2023-08-06T00:16:08;4.6;;;3.4;;
27357;SDS011;14831;50.474;7.616;2023-08-06T00:20:57;4.6;;;3.4;;
27357;SDS011;14831;50.474;7.616;2023-08-06T00:25:57;4.6;;;3.4;;
27357;SDS011;14831;50.474;7.616;2023-08-06T00:30:57;4.6;;;3.4;;
27357;SDS011;14831;50.474;7.616;2023-08-06T00:35:57;4.2;;;3.5;;
27357;SDS011;14831;50.474;7.616;2023-08-06T00:40:57;4.2;;;3.5;;
27357;SDS011;14831;50.474;7.616;2023-08-06T00:45:57;4.2;;;3.5;;
27357;SDS011;14831;50.474;7.616;2023-08-06T00:50:57;4.2;;;3.5;;
27357;SDS011;14831;50.474;7.616;2023-08-06T00:55:57;4.2;;;3.5;;
27357;SDS011;14831;50.474;7.616;2023-08-06T01:00:57;4.2;;;3.5;;
27357;SDS011;14831;50.474;7.616;2023-08-06T01:05:57;3.6;;;3.3;;
27357;SDS011;14831;50.474;7.616;2023-08-06T01:11:08;3.6;;;3.3;;
27357;SDS011;14831;50.474;7.616;2023-08-06T01:15:58;3.6;;;3.3;;
27357;SDS011;14831;50.474;7.616;2023-08-06T01:20:57;3.6;;;3.3;;
27357;SDS011;14831;50.474;7.616;2023-08-06T01:26:05;3.6;;;3.3;;
27357;SDS011;14831;50.474;7.616;2023-08-06T01:31:00;3.6;;;3.3;;
27357;SDS011;14831;50.474;7.616;2023-08-06T01:35:57;3.7;;;3.3;;
27357;SDS011;14831;50.474;7.616;2023-08-06T01:40:57;3.7;;;3.3;;
27357;SDS011;14831;50.474;7.616;2023-08-06T01:45:57;3.7;;;3.3;;
27357;SDS011;14831;50.474;7.616;2023-08-06T01:50:57;3.7;;;3.3;;
27357;SDS011;14831;50.474;7.616;2023-08-06T01:55:57;3.7;;;3.3;;
27357;SDS011;14831;50.474;7.616;2023-08-06T02:00:57;3.7;;;3.3;;
27357;SDS011;14831;50.474;7.616;2023-08-06T02:05:57;3.4;;;3.1;;
27357;SDS011;14831;50.474;7.616;2023-08-06T02:10:57;3.4;;;3.1;;
27357;SDS011;14831;50.474;7.616;2023-08-06T02:15:57;3.4;;;3.1;;
27357;SDS011;14831;50.474;7.616;2023-08-06T02:20:58;3.4;;;3.1;;
27357;SDS011;14831;50.474;7.616;2023-08-06T02:25:59;3.4;;;3.1;;
27357;SDS011;14831;50.474;7.616;2023-08-06T02:30:57;3.4;;;3.1;;
27357;SDS011;14831;50.474;7.616;2023-08-06T02:35:59;4.3;;;3.4;;
27357;SDS011;14831;50.474;7.616;2023-08-06T02:40:57;4.3;;;3.4;;
27357;SDS011;14831;50.474;7.616;2023-08-06T02:45:58;4.3;;;3.4;;
27357;SDS011;14831;50.474;7.616;2023-08-06T02:50:58;4.3;;;3.4;;
27357;SDS011;14831;50.474;7.616;2023-08-06T02:55:57;4.3;;;3.4;;
27357;SDS011;14831;50.474;7.616;2023-08-06T03:00:59;4.3;;;3.4;;
27357;SDS011;14831;50.474;7.616;2023-08-06T03:05:57;4.0;;;3.2;;
27357;SDS011;14831;50.474;7.616;2023-08-06T03:10:57;4.0;;;3.2;;
27357;SDS011;14831;50.474;7.616;2023-08-06T03:15:58;4.0;;;3.2;;
27357;SDS011;14831;50.474;7.616;2023-08-06T03:20:57;4.0;;;3.2;;
27357;SDS011;14831;50.474;7.616;2023-08-06T03:26:01;4.0;;;3.2;;
27357;SDS011;14831;50.474;7.616;2023-08-06T03:30:59;4.0;;;3.2;;
27357;SDS011;14831;50.474;7.616;2023-08-06T03:35:57;4.5;;;2.7;;
27357;SDS011;14831;50.474;7.616;2023-08-06T03:40:57;4.5;;;2.7;;
27357;SDS011;14831;50.474;7.616;2023-08-06T03:45:57;4.5;;;2.7;;
27357;SDS011;14831;50.474;7.616;2023-08-06T03:50:57;4.5;;;2.7;;
27357;SDS011;14831;50.474;7.616;2023-08-06T03:55:57;4.5;;;2.7;;
27357;SDS011;14831;50.474;7.616;2023-08-06T04:00:58;4.5;;;2.7;;
27357;SDS011;14831;50.474;7.616;2023-08-06T04:05:57;4.6;;;2.7;;
27357;SDS011;14831;50.474;7.616;2023-08-06T04:10:57;4.6;;;2.7;;
27357;SDS011;14831;50.474;7.616;2023-08-06T04:16:00;4.6;;;2.7;;
27357;SDS011;14831;50.474;7.616;2023-08-06T04:20:57;4.6;;;2.7;;
27357;SDS011;14831;50.474;7.616;2023-08-06T04:25:57;4.6;;;2.7;;
27357;SDS011;14831;50.474;7.616;2023-08-06T04:30:58;4.6;;;2.7;;
27357;SDS011;14831;50.474;7.616;2023-08-06T04:35:57;4.6;;;2.4;;
27357;SDS011;14831;50.474;7.616;2023-08-06T04:40:57;4.6;;;2.4;;
27357;SDS011;14831;50.474;7.616;2023-08-06T04:45:57;4.6;;;2.4;;
27357;SDS011;14831;50.474;7.616;2023-08-06T04:50:57;4.6;;;2.4;;
27357;SDS011;14831;50.474;7.616;2023-08-06T04:55:57;4.6;;;2.4;;
27357;SDS011;14831;50.474;7.616;2023-08-06T05:00:57;4.6;;;2.4;;
27357;SDS011;14831;50.474;7.616;2023-08-06T05:05:57;3.5;;;2.4;;
27357;SDS011;14831;50.474;7.616;2023-08-06T05:10:57;3.5;;;2.4;;
27357;SDS011;14831;50.474;7.616;2023-08-06T05:15:57;3.5;;;2.4;;
27357;SDS011;14831;50.474;7.616;2023-08-06T05:20:57;3.5;;;2.4;;
27357;SDS011;14831;50.474;7.616;2023-08-06T05:25:57;3.5;;;2.4;;
27357;SDS011;14831;50.474;7.616;2023-08-06T05:30:57;3.5;;;2.4;;
27357;SDS011;14831;50.474;7.616;2023-08-06T05:35:57;3.2;;;2.2;;
27357;SDS011;14831;50.474;7.616;2023-08-06T05:40:57;3.2;;;2.2;;
27357;SDS011;14831;50.474;7.616;2023-08-06T05:45:57;3.2;;;2.2;;
27357;SDS011;14831;50.474;7.616;2023-08-06T05:50:57;3.2;;;2.2;;
27357;SDS011;14831;50.474;7.616;2023-08-06T05:55:57;3.2;;;2.2;;
27357;SDS011;14831;50.474;7.616;2023-08-06T06:00:57;3.2;;;2.2;;
27357;SDS011;14831;50.474;7.616;2023-08-06T06:05:58;3.8;;;1.8;;
27357;SDS011;14831;50.474;7.616;2023-08-06T06:10:58;3.8;;;1.8;;
27357;SDS011;14831;50.474;7.616;2023-08-06T06:15:57;3.8;;;1.8;;
27357;SDS011;14831;50.474;7.616;2023-08-06T06:20:57;3.8;;;1.8;;
27357;SDS011;14831;50.474;7.616;2023-08-06T06:25:57;3.8;;;1.8;;
27357;SDS011;14831;50.474;7.616;2023-08-06T06:31:00;3.8;;;1.8;;
27357;SDS011;14831;50.474;7.616;2023-08-06T06:35:57;4.8;;;1.1;;
27357;SDS011;14831;50.474;7.616;2023-08-06T06:40:57;4.8;;;1.1;;
27357;SDS011;14831;50.474;7.616;2023-08-06T06:45:57;4.8;;;1.1;;
27357;SDS011;14831;50.474;7.616;2023-08-06T06:50:57;4.8;;;1.1;;
27357;SDS011;14831;50.474;7.616;2023-08-06T06:56:03;4.8;;;1.1;;
27357;SDS011;14831;50.474;7.616;2023-08-06T07:00:57;4.8;;;1.1;;
27357;SDS011;14831;50.474;7.616;2023-08-06T07:05:58;1.3;;;0.7;;
27357;SDS011;14831;50.474;7.616;2023-08-06T07:11:01;1.3;;;0.7;;
27357;SDS011;14831;50.474;7.616;2023-08-06T07:15:57;1.3;;;0.7;;
27357;SDS011;14831;50.474;7.616;2023-08-06T07:20:57;1.3;;;0.7;;
27357;SDS011;14831;50.474;7.616;2023-08-06T07:25:57;1.3;;;0.7;;
27357;SDS011;14831;50.474;7.616;2023-08-06T07:30:57;1.3;;;0.7;;
27357;SDS011;14831;50.474;7.616;2023-08-06T07:35:57;1.0;;;0.7;;
27357;SDS011;14831;50.474;7.616;2023-08-06T07:40:57;1.0;;;0.7;;
27357;SDS011;14831;50.474;7.616;2023-08-06T07:45:58;1.0;;;0.7;;
27357;SDS011;14831;50.474;7.616;2023-08-06T07:50:57;1.0;;;0.7;;
27357;SDS011;14831;50.474;7.616;2023-08-06T07:55:57;1.0;;;0.7;;
27357;SDS011;14831;50.474;7.616;2023-08-06T08:00:57;1.0;;;0.7;;
27357;SDS011;14831;50.474;7.616;2023-08-06T08:05:57;1.0;;;0.6;;
27357;SDS011;14831;50.474;7.616;2023-08-06T08:10:57;1.0;;;0.6;;
27357;SDS011;14831;50.474;7.616;2023-08-06T08:15:57;1.0;;;0.6;;
27357;SDS011;14831;50.474;7.616;2023-08-06T08:20:57;1.0;;;0.6;;
27357;SDS011;14831;50.474;7.616;2023-08-06T08:25:57;1.0;;;0.6;;
27357;SDS011;14831;50.474;7.616;2023-08-06T08:30:57;1.0;;;0.6;;
27357;SDS011;14831;50.474;7.616;2023-08-06T08:35:57;1.9;;;0.9;;
27357;SDS011;14831;50.474;7.616;2023-08-06T08:40:57;1.9;;;0.9;;
27357;SDS011;14831;50.474;7.616;2023-08-06T08:45:58;1.9;;;0.9;;
27357;SDS011;14831;50.474;7.616;2023-08-06T08:50:58;1.9;;;0.9;;
27357;SDS011;14831;50.474;7.616;2023-08-06T08:55:58;1.9;;;0.9;;
27357;SDS011;14831;50.474;7.616;2023-08-06T09:00:57;1.9;;;0.9;;
27357;SDS011;14831;50.474;7.616;2023-08-06T09:05:58;1.5;;;0.9;;
27357;SDS011;14831;50.474;7.616;2023-08-06T09:10:58;1.5;;;0.9;;
27357;SDS011;14831;50.474;7.616;2023-08-06T09:15:57;1.5;;;0.9;;
27357;SDS011;14831;50.474;7.616;2023-08-06T09:20:57;1.5;;;0.9;;
27357;SDS011;14831;50.474;7.616;2023-08-06T09:25:58;1.5;;;0.9;;
27357;SDS011;14831;50.474;7.616;2023-08-06T09:30:59;1.5;;;0.9;;
27357;SDS011;14831;50.474;7.616;2023-08-06T09:36:06;1.5;;;0.9;;
27357;SDS011;14831;50.474;7.616;2023-08-06T09:40:57;1.5;;;0.9;;
27357;SDS011;14831;50.474;7.616;2023-08-06T09:45:57;1.5;;;0.9;;
27357;SDS011;14831;50.474;7.616;2023-08-06T09:50:57;1.5;;;0.9;;
27357;SDS011;14831;50.474;7.616;2023-08-06T09:55:57;1.5;;;0.9;;
27357;SDS011;14831;50.474;7.616;2023-08-06T10:00:58;1.5;;;0.9;;
27357;SDS011;14831;50.474;7.616;2023-08-06T10:05:57;1.5;;;1.1;;
27357;SDS011;14831;50.474;7.616;2023-08-06T10:10:57;1.5;;;1.1;;
27357;SDS011;14831;50.474;7.616;2023-08-06T10:15:57;1.5;;;1.1;;
27357;SDS011;14831;50.474;7.616;2023-08-06T10:20:59;1.5;;;1.1;;
27357;SDS011;14831;50.474;7.616;2023-08-06T10:25:57;1.5;;;1.1;;
27357;SDS011;14831;50.474;7.616;2023-08-06T10:30:57;1.5;;;1.1;;
27357;SDS011;14831;50.474;7.616;2023-08-06T10:36:01;1.1;;;0.8;;
27357;SDS011;14831;50.474;7.616;2023-08-06T10:41:02;1.1;;;0.8;;
27357;SDS011;14831;50.474;7.616;2023-08-06T10:45:58;1.1;;;0.8;;
27357;SDS011;14831;50.474;7.616;2023-08-06T10:51:00;1.1;;;0.8;;
27357;SDS011;14831;50.474;7.616;2023-08-06T10:55:57;1.1;;;0.8;;
27357;SDS011;14831;50.474;7.616;2023-08-06T11:00:57;1.1;;;0.8;;
27357;SDS011;14831;50.474;7.616;2023-08-06T11:05:57;0.7;;;0.7;;
27357;SDS011;14831;50.474;7.616;2023-08-06T11:11:07;0.7;;;0.7;;
27357;SDS011;14831;50.474;7.616;2023-08-06T11:15:57;0.7;;;0.7;;
27357;SDS011;14831;50.474;7.616;2023-08-06T11:20:58;0.7;;;0.7;;
27357;SDS011;14831;50.474;7.616;2023-08-06T11:25:58;0.7;;;0.7;;
27357;SDS011;14831;50.474;7.616;2023-08-06T11:30:58;0.7;;;0.7;;
27357;SDS011;14831;50.474;7.616;2023-08-06T11:35:58;0.9;;;0.5;;
27357;SDS011;14831;50.474;7.616;2023-08-06T11:40:57;0.9;;;0.5;;
27357;SDS011;14831;50.474;7.616;2023-08-06T11:45:57;0.9;;;0.5;;
27357;SDS011;14831;50.474;7.616;2023-08-06T11:50:57;0.9;;;0.5;;
27357;SDS011;14831;50.474;7.616;2023-08-06T11:55:57;0.9;;;0.5;;
27357;SDS011;14831;50.474;7.616;2023-08-06T12:00:57;0.9;;;0.5;;
27357;SDS011;14831;50.474;7.616;2023-08-06T12:05:57;2.3;;;0.5;;
27357;SDS011;14831;50.474;7.616;2023-08-06T12:10:57;2.3;;;0.5;;
27357;SDS011;14831;50.474;7.616;2023-08-06T12:15:57;2.3;;;0.5;;
27357;SDS011;14831;50.474;7.616;2023-08-06T12:20:57;2.3;;;0.5;;
27357;SDS011;14831;50.474;7.616;2023-08-06T12:25:57;2.3;;;0.5;;
27357;SDS011;14831;50.474;7.616;2023-08-06T12:30:58;2.3;;;0.5;;
27357;SDS011;14831;50.474;7.616;2023-08-06T12:35:57;1.1;;;0.4;;
27357;SDS011;14831;50.474;7.616;2023-08-06T12:40:57;1.1;;;0.4;;
27357;SDS011;14831;50.474;7.616;2023-08-06T12:45:57;1.1;;;0.4;;
27357;SDS011;14831;50.474;7.616;2023-08-06T12:50:57;1.1;;;0.4;;
27357;SDS011;14831;50.474;7.616;2023-08-06T12:55:57;1.1;;;0.4;;
27357;SDS011;14831;50.474;7.616;2023-08-06T13:00:57;1.1;;;0.4;;
27357;SDS011;14831;50.474;7.616;2023-08-06T13:05:57;0.7;;;0.5;;
27357;SDS011;14831;50.474;7.616;2023-08-06T13:10:57;0.7;;;0.5;;
27357;SDS011;14831;50.474;7.616;2023-08-06T13:15:57;0.7;;;0.5;;
27357;SDS011;14831;50.474;7.616;2023-08-06T13:20:57;0.7;;;0.5;;
27357;SDS011;14831;50.474;7.616;2023-08-06T13:25:57;0.7;;;0.5;;
27357;SDS011;14831;50.474;7.616;2023-08-06T13:30:57;0.7;;;0.5;;
27357;SDS011;14831;50.474;7.616;2023-08-06T13:35:57;0.7;;;0.6;;
27357;SDS011;14831;50.474;7.616;2023-08-06T13:40:57;0.7;;;0.6;;
27357;SDS011;14831;50.474;7.616;2023-08-06T13:45:57;0.7;;;0.6;;
27357;SDS011;14831;50.474;7.616;2023-08-06T13:50:57;0.7;;;0.6;;
27357;SDS011;14831;50.474;7.616;2023-08-06T13:55:57;0.7;;;0.6;;
27357;SDS011;14831;50.474;7.616;2023-08-06T14:00:57;0.7;;;0.6;;
27357;SDS011;14831;50.474;7.616;2023-08-06T14:05:57;1.8;;;0.7;;
27357;SDS011;14831;50.474;7.616;2023-08-06T14:10:57;1.8;;;0.7;;
27357;SDS011;14831;50.474;7.616;2023-08-06T14:15:57;1.8;;;0.7;;
27357;SDS011;14831;50.474;7.616;2023-08-06T14:20:57;1.8;;;0.7;;
27357;SDS011;14831;50.474;7.616;2023-08-06T14:25:57;1.8;;;0.7;;
27357;SDS011;14831;50.474;7.616;2023-08-06T14:30:57;1.8;;;0.7;;
27357;SDS011;14831;50.474;7.616;2023-08-06T14:35:57;1.0;;;0.7;;
27357;SDS011;14831;50.474;7.616;2023-08-06T14:40:57;1.0;;;0.7;;
27357;SDS011;14831;50.474;7.616;2023-08-06T14:45:57;1.0;;;0.7;;
27357;SDS011;14831;50.474;7.616;2023-08-06T14:50:57;1.0;;;0.7;;
27357;SDS011;14831;50.474;7.616;2023-08-06T14:55:57;1.0;;;0.7;;
27357;SDS011;14831;50.474;7.616;2023-08-06T15:00:57;1.0;;;0.7;;
27357;SDS011;14831;50.474;7.616;2023-08-06T15:05:57;1.7;;;0.8;;
27357;SDS011;14831;50.474;7.616;2023-08-06T15:10:57;1.7;;;0.8;;
27357;SDS011;14831;50.474;7.616;2023-08-06T15:15:57;1.7;;;0.8;;
27357;SDS011;14831;50.474;7.616;2023-08-06T15:20:57;1.7;;;0.8;;
27357;SDS011;14831;50.474;7.616;2023-08-06T15:25:57;1.7;;;0.8;;
27357;SDS011;14831;50.474;7.616;2023-08-06T15:30:57;1.7;;;0.8;;
27357;SDS011;14831;50.474;7.616;2023-08-06T15:35:57;1.2;;;0.6;;
27357;SDS011;14831;50.474;7.616;2023-08-06T15:40:57;1.2;;;0.6;;
27357;SDS011;14831;50.474;7.616;2023-08-06T15:45:57;1.2;;;0.6;;
27357;SDS011;14831;50.474;7.616;2023-08-06T15:50:57;1.2;;;0.6;;
27357;SDS011;14831;50.474;7.616;2023-08-06T15:55:57;1.2;;;0.6;;
27357;SDS011;14831;50.474;7.616;2023-08-06T16:00:57;1.2;;;0.6;;
27357;SDS011;14831;50.474;7.616;2023-08-06T16:05:57;1.6;;;0.6;;
27357;SDS011;14831;50.474;7.616;2023-08-06T16:10:57;1.6;;;0.6;;
27357;SDS011;14831;50.474;7.616;2023-08-06T16:15:57;1.6;;;0.6;;
27357;SDS011;14831;50.474;7.616;2023-08-06T16:20:57;1.6;;;0.6;;
27357;SDS011;14831;50.474;7.616;2023-08-06T16:25:57;1.6;;;0.6;;
27357;SDS011;14831;50.474;7.616;2023-08-06T16:30:57;1.6;;;0.6;;
27357;SDS011;14831;50.474;7.616;2023-08-06T16:35:57;0.9;;;0.6;;
27357;SDS011;14831;50.474;7.616;2023-08-06T16:40:57;0.9;;;0.6;;
27357;SDS011;14831;50.474;7.616;2023-08-06T16:45:57;0.9;;;0.6;;
27357;SDS011;14831;50.474;7.616;2023-08-06T16:50:59;0.9;;;0.6;;
27357;SDS011;14831;50.474;7.616;2023-08-06T16:55:57;0.9;;;0.6;;
27357;SDS011;14831;50.474;7.616;2023-08-06T17:00:57;0.9;;;0.6;;
27357;SDS011;14831;50.474;7.616;2023-08-06T17:05:58;0.8;;;0.6;;
27357;SDS011;14831;50.474;7.616;2023-08-06T17:10:57;0.8;;;0.6;;
27357;SDS011;14831;50.474;7.616;2023-08-06T17:15:57;0.8;;;0.6;;
27357;SDS011;14831;50.474;7.616;2023-08-06T17:20:59;0.8;;;0.6;;
27357;SDS011;14831;50.474;7.616;2023-08-06T17:25:57;0.8;;;0.6;;
27357;SDS011;14831;50.474;7.616;2023-08-06T17:30:57;0.8;;;0.6;;
27357;SDS011;14831;50.474;7.616;2023-08-06T17:35:57;1.1;;;0.8;;
27357;SDS011;14831;50.474;7.616;2023-08-06T17:40:57;1.1;;;0.8;;
27357;SDS011;14831;50.474;7.616;2023-08-06T17:45:57;1.1;;;0.8;;
27357;SDS011;14831;50.474;7.616;2023-08-06T17:50:57;1.1;;;0.8;;
27357;SDS011;14831;50.474;7.616;2023-08-06T17:55:57;1.1;;;0.8;;
27357;SDS011;14831;50.474;7.616;2023-08-06T18:00:57;1.1;;;0.8;;
27357;SDS011;14831;50.474;7.616;2023-08-06T18:05:58;1.9;;;0.7;;
27357;SDS011;14831;50.474;7.616;2023-08-06T18:10:57;1.9;;;0.7;;
27357;SDS011;14831;50.474;7.616;2023-08-06T18:15:57;1.9;;;0.7;;
27357;SDS011;14831;50.474;7.616;2023-08-06T18:20:57;1.9;;;0.7;;
27357;SDS011;14831;50.474;7.616;2023-08-06T18:25:57;1.9;;;0.7;;
27357;SDS011;14831;50.474;7.616;2023-08-06T18:30:57;1.9;;;0.7;;
27357;SDS011;14831;50.474;7.616;2023-08-06T18:35:57;1.7;;;1.0;;
27357;SDS011;14831;50.474;7.616;2023-08-06T18:40:57;1.7;;;1.0;;
27357;SDS011;14831;50.474;7.616;2023-08-06T18:45:57;1.7;;;1.0;;
27357;SDS011;14831;50.474;7.616;2023-08-06T18:50:57;1.7;;;1.0;;
27357;SDS011;14831;50.474;7.616;2023-08-06T18:55:57;1.7;;;1.0;;
27357;SDS011;14831;50.474;7.616;2023-08-06T19:00:57;1.7;;;1.0;;
27357;SDS011;14831;50.474;7.616;2023-08-06T19:05:59;6.1;;;1.1;;
27357;SDS011;14831;50.474;7.616;2023-08-06T19:10:57;6.1;;;1.1;;
27357;SDS011;14831;50.474;7.616;2023-08-06T19:15:57;6.1;;;1.1;;
27357;SDS011;14831;50.474;7.616;2023-08-06T19:20:57;6.1;;;1.1;;
27357;SDS011;14831;50.474;7.616;2023-08-06T19:25:59;6.1;;;1.1;;
27357;SDS011;14831;50.474;7.616;2023-08-06T19:30:58;6.1;;;1.1;;
27357;SDS011;14831;50.474;7.616;2023-08-06T19:35:57;9.8;;;1.1;;
27357;SDS011;14831;50.474;7.616;2023-08-06T19:41:06;9.8;;;1.1;;
27357;SDS011;14831;50.474;7.616;2023-08-06T19:45:57;9.8;;;1.1;;
27357;SDS011;14831;50.474;7.616;2023-08-06T19:50:57;9.8;;;1.1;;
27357;SDS011;14831;50.474;7.616;2023-08-06T19:55:57;9.8;;;1.1;;
27357;SDS011;14831;50.474;7.616;2023-08-06T20:00:58;9.8;;;1.1;;
27357;SDS011;14831;50.474;7.616;2023-08-06T20:05:59;4.0;;;1.0;;
27357;SDS011;14831;50.474;7.616;2023-08-06T20:10:57;4.0;;;1.0;;
27357;SDS011;14831;50.474;7.616;2023-08-06T20:15:57;4.0;;;1.0;;
27357;SDS011;14831;50.474;7.616;2023-08-06T20:20:57;4.0;;;1.0;;
27357;SDS011;14831;50.474;7.616;2023-08-06T20:25:57;4.0;;;1.0;;
27357;SDS011;14831;50.474;7.616;2023-08-06T20:30:57;4.0;;;1.0;;
27357;SDS011;14831;50.474;7.616;2023-08-06T20:35:57;3.1;;;0.7;;
27357;SDS011;14831;50.474;7.616;2023-08-06T20:40:57;3.1;;;0.7;;
27357;SDS011;14831;50.474;7.616;2023-08-06T20:45:58;3.1;;;0.7;;
27357;SDS011;14831;50.474;7.616;2023-08-06T20:50:57;3.1;;;0.7;;
27357;SDS011;14831;50.474;7.616;2023-08-06T20:55:58;3.1;;;0.7;;
27357;SDS011;14831;50.474;7.616;2023-08-06T21:00:58;3.1;;;0.7;;
27357;SDS011;14831;50.474;7.616;2023-08-06T21:05:59;3.8;;;0.9;;
27357;SDS011;14831;50.474;7.616;2023-08-06T21:10:58;3.8;;;0.9;;
27357;SDS011;14831;50.474;7.616;2023-08-06T21:15:58;3.8;;;0.9;;
27357;SDS011;14831;50.474;7.616;2023-08-06T21:20:57;3.8;;;0.9;;
27357;SDS011;14831;50.474;7.616;2023-08-06T21:25:58;3.8;;;0.9;;
27357;SDS011;14831;50.474;7.616;2023-08-06T21:30:59;3.8;;;0.9;;
27357;SDS011;14831;50.474;7.616;2023-08-06T21:35:59;3.3;;;0.8;;
27357;SDS011;14831;50.474;7.616;2023-08-06T21:41:01;3.3;;;0.8;;
27357;SDS011;14831;50.474;7.616;2023-08-06T21:46:00;3.3;;;0.8;;
27357;SDS011;14831;50.474;7.616;2023-08-06T21:51:00;3.3;;;0.8;;
27357;SDS011;14831;50.474;7.616;2023-08-06T21:55:57;3.3;;;0.8;;
27357;SDS011;14831;50.474;7.616;2023-08-06T22:00:57;3.3;;;0.8;;
27357;SDS011;14831;50.474;7.616;2023-08-06T22:05:57;1.6;;;0.6;;
27357;SDS011;14831;50.474;7.616;2023-08-06T22:10:57;1.6;;;0.6;;
27357;SDS011;14831;50.474;7.616;2023-08-06T22:15:57;1.6;;;0.6;;
27357;SDS011;14831;50.474;7.616;2023-08-06T22:20:57;1.6;;;0.6;;
27357;SDS011;14831;50.474;7.616;2023-08-06T22:25:57;1.6;;;0.6;;
27357;SDS011;14831;50.474;7.616;2023-08-06T22:30:57;1.6;;;0.6;;
27357;SDS011;14831;50.474;7.616;2023-08-06T22:35:57;0.8;;;0.5;;
27357;SDS011;14831;50.474;7.616;2023-08-06T22:40:57;0.8;;;0.5;;
27357;SDS011;14831;50.474;7.616;2023-08-06T22:45:57;0.8;;;0.5;;
27357;SDS011;14831;50.474;7.616;2023-08-06T22:50:57;0.8;;;0.5;;
27357;SDS011;14831;50.474;7.616;2023-08-06T22:55:57;0.8;;;0.5;;
27357;SDS011;14831;50.474;7.616;2023-08-06T23:00:57;0.8;;;0.5;;
27357;SDS011;14831;50.474;7.616;2023-08-06T23:05:57;2.0;;;0.6;;
27357;SDS011;14831;50.474;7.616;2023-08-06T23:10:57;2.0;;;0.6;;
27357;SDS011;14831;50.474;7.616;2023-08-06T23:15:57;2.0;;;0.6;;
27357;SDS011;14831;50.474;7.616;2023-08-06T23:20:57;2.0;;;0.6;;
27357;SDS011;14831;50.474;7.616;2023-08-06T23:25:57;2.0;;;0.6;;
27357;SDS011;14831;50.474;7.616;2023-08-06T23:30:57;2.0;;;0.6;;
27357;SDS011;14831;50.474;7.616;2023-08-06T23:35:57;1.0;;;0.5;;
27357;SDS011;14831;50.474;7.616;2023-08-06T23:40:57;1.0;;;0.5;;
27357;SDS011;14831;50.474;7.616;2023-08-06T23:45:57;1.0;;;0.5;;
27357;SDS011;14831;50.474;7.616;2023-08-06T23:50:57;1.0;;;0.5;;
27357;SDS011;14831;50.474;7.616;2023-08-06T23:55:57;1.0;;;0.5;;
